sensor_id;sensor_type;location;lat;lon;timestamp;pressure;altitude;pressure_sealevel;temperature;humidity
13367;BME280;6752;52.612;13.630;2023-06-24T00:04:21;101534.16;;;17.12;100.00
13367;BME280;6752;52.612;13.630;2023-06-24T00:09:24;101528.81;;;17.14;100.00
13367;BME280;6752;52.612;13.630;2023-06-24T00:14:26;101540.03;;;17.10;100.00
13367;BME280;6752;52.612;13.630;2023-06-24T00:19:29;101546.08;;;17.09;100.00
13367;BME280;6752;52.612;13.630;2023-06-24T00:24:31;101538.58;;;17.13;100.00
13367;BME280;6752;52.612;13.630;2023-06-24T00:29:33;101545.84;;;17.10;100.00
13367;BME280;6752;52.612;13.630;2023-06-24T00:34:42;101554.30;;;17.07;100.00
13367;BME280;6752;52.612;13.630;2023-06-24T00:39:44;101564.16;;;17.11;100.00
13367;BME280;6752;52.612;13.630;2023-06-24T00:44:46;101552.87;;;17.04;100.00
13367;BME280;6752;52.612;13.630;2023-06-24T00:49:55;101556.25;;;17.03;100.00
13367;BME280;6752;52.612;13.630;2023-06-24T00:55:00;101557.36;;;16.90;100.00
13367;BME280;6752;52.612;13.630;2023-06-24T01:00:02;101557.20;;;16.82;100.00
13367;BME280;6752;52.612;13.630;2023-06-24T01:05:04;101568.94;;;16.84;100.00
13367;BME280;6752;52.612;13.630;2023-06-24T01:10:07;101572.92;;;16.79;100.00
13367;BME280;6752;52.612;13.630;2023-06-24T01:15:09;101576.64;;;16.72;100.00
13367;BME280;6752;52.612;13.630;2023-06-24T01:20:11;101580.18;;;16.70;100.00
13367;BME280;6752;52.612;13.630;2023-06-24T01:35:44;101587.27;;;16.63;100.00
13367;BME280;6752;52.612;13.630;2023-06-24T01:40:46;101586.72;;;16.52;100.00
13367;BME280;6752;52.612;13.630;2023-06-24T01:45:49;101582.17;;;16.46;100.00
13367;BME280;6752;52.612;13.630;2023-06-24T01:55:57;101571.73;;;16.30;100.00
13367;BME280;6752;52.612;13.630;2023-06-24T02:00:58;101566.41;;;16.20;100.00
13367;BME280;6752;52.612;13.630;2023-06-24T02:06:01;101561.45;;;16.14;100.00
13367;BME280;6752;52.612;13.630;2023-06-24T02:11:03;101570.91;;;15.97;100.00
13367;BME280;6752;52.612;13.630;2023-06-24T02:16:06;101569.23;;;15.96;100.00
13367;BME280;6752;52.612;13.630;2023-06-24T02:21:08;101566.17;;;15.95;100.00
13367;BME280;6752;52.612;13.630;2023-06-24T02:26:10;101572.27;;;15.91;100.00
13367;BME280;6752;52.612;13.630;2023-06-24T02:31:12;101577.58;;;15.90;100.00
13367;BME280;6752;52.612;13.630;2023-06-24T02:36:15;101580.38;;;15.86;100.00
13367;BME280;6752;52.612;13.630;2023-06-24T02:41:17;101574.79;;;15.84;100.00
13367;BME280;6752;52.612;13.630;2023-06-24T02:46:20;101583.20;;;15.80;100.00
13367;BME280;6752;52.612;13.630;2023-06-24T02:51:22;101589.49;;;15.84;100.00
13367;BME280;6752;52.612;13.630;2023-06-24T02:56:25;101590.13;;;15.76;100.00
13367;BME280;6752;52.612;13.630;2023-06-24T03:01:27;101585.36;;;15.78;100.00
13367;BME280;6752;52.612;13.630;2023-06-24T03:06:29;101589.13;;;15.80;100.00
13367;BME280;6752;52.612;13.630;2023-06-24T03:11:32;101594.42;;;15.72;100.00
13367;BME280;6752;52.612;13.630;2023-06-24T03:16:40;101598.08;;;15.75;100.00
13367;BME280;6752;52.612;13.630;2023-06-24T03:21:45;101600.69;;;15.70;100.00
13367;BME280;6752;52.612;13.630;2023-06-24T03:26:48;101604.47;;;15.73;100.00
13367;BME280;6752;52.612;13.630;2023-06-24T03:31:50;101613.48;;;15.71;100.00
13367;BME280;6752;52.612;13.630;2023-06-24T03:36:55;101620.42;;;15.73;100.00
13367;BME280;6752;52.612;13.630;2023-06-24T03:42:01;101617.44;;;15.75;100.00
13367;BME280;6752;52.612;13.630;2023-06-24T03:47:03;101611.31;;;15.67;100.00
13367;BME280;6752;52.612;13.630;2023-06-24T03:52:06;101609.76;;;15.65;100.00
13367;BME280;6752;52.612;13.630;2023-06-24T03:57:08;101615.63;;;15.69;100.00
13367;BME280;6752;52.612;13.630;2023-06-24T04:02:10;101614.53;;;15.64;100.00
13367;BME280;6752;52.612;13.630;2023-06-24T04:07:13;101613.31;;;15.75;100.00
13367;BME280;6752;52.612;13.630;2023-06-24T04:12:15;101621.46;;;15.81;100.00
13367;BME280;6752;52.612;13.630;2023-06-24T04:17:20;101616.02;;;15.93;100.00
13367;BME280;6752;52.612;13.630;2023-06-24T04:22:23;101618.60;;;16.12;100.00
13367;BME280;6752;52.612;13.630;2023-06-24T04:27:25;101608.49;;;16.36;100.00
13367;BME280;6752;52.612;13.630;2023-06-24T04:32:30;101614.72;;;16.16;100.00
13367;BME280;6752;52.612;13.630;2023-06-24T04:37:33;101628.54;;;16.04;100.00
13367;BME280;6752;52.612;13.630;2023-06-24T04:42:35;101624.95;;;16.03;100.00
13367;BME280;6752;52.612;13.630;2023-06-24T04:47:37;101628.88;;;16.11;100.00
13367;BME280;6752;52.612;13.630;2023-06-24T04:52:40;101629.61;;;16.18;100.00
13367;BME280;6752;52.612;13.630;2023-06-24T04:57:42;101637.34;;;16.24;100.00
13367;BME280;6752;52.612;13.630;2023-06-24T05:02:44;101639.42;;;16.52;100.00
13367;BME280;6752;52.612;13.630;2023-06-24T05:07:47;101639.72;;;16.74;100.00
13367;BME280;6752;52.612;13.630;2023-06-24T05:12:52;101637.47;;;16.83;100.00
13367;BME280;6752;52.612;13.630;2023-06-24T05:17:55;101619.51;;;17.03;100.00
13367;BME280;6752;52.612;13.630;2023-06-24T05:22:57;101617.51;;;17.13;100.00
13367;BME280;6752;52.612;13.630;2023-06-24T05:27:59;101623.12;;;17.56;100.00
13367;BME280;6752;52.612;13.630;2023-06-24T05:33:01;101620.63;;;17.63;100.00
13367;BME280;6752;52.612;13.630;2023-06-24T05:38:13;101623.09;;;17.96;100.00
13367;BME280;6752;52.612;13.630;2023-06-24T05:43:16;101622.88;;;18.37;100.00
13367;BME280;6752;52.612;13.630;2023-06-24T05:48:18;101628.33;;;18.57;100.00
13367;BME280;6752;52.612;13.630;2023-06-24T05:53:32;101636.87;;;18.47;100.00
13367;BME280;6752;52.612;13.630;2023-06-24T05:58:34;101644.53;;;18.84;100.00
13367;BME280;6752;52.612;13.630;2023-06-24T06:03:37;101642.22;;;19.15;100.00
13367;BME280;6752;52.612;13.630;2023-06-24T06:08:40;101640.13;;;19.14;100.00
13367;BME280;6752;52.612;13.630;2023-06-24T06:13:42;101639.67;;;19.60;100.00
13367;BME280;6752;52.612;13.630;2023-06-24T06:18:44;101646.06;;;19.72;100.00
13367;BME280;6752;52.612;13.630;2023-06-24T06:23:46;101645.75;;;19.93;100.00
13367;BME280;6752;52.612;13.630;2023-06-24T06:28:57;101649.00;;;20.28;100.00
13367;BME280;6752;52.612;13.630;2023-06-24T06:33:59;101651.19;;;20.82;100.00
13367;BME280;6752;52.612;13.630;2023-06-24T06:39:02;101654.41;;;21.06;100.00
13367;BME280;6752;52.612;13.630;2023-06-24T06:44:04;101644.73;;;21.61;100.00
13367;BME280;6752;52.612;13.630;2023-06-24T06:49:07;101644.69;;;21.87;100.00
13367;BME280;6752;52.612;13.630;2023-06-24T06:54:09;101642.45;;;22.68;100.00
13367;BME280;6752;52.612;13.630;2023-06-24T06:59:12;101643.73;;;22.49;100.00
13367;BME280;6752;52.612;13.630;2023-06-24T07:04:14;101643.41;;;21.47;100.00
13367;BME280;6752;52.612;13.630;2023-06-24T07:09:16;101645.23;;;22.25;100.00
13367;BME280;6752;52.612;13.630;2023-06-24T07:14:18;101639.86;;;23.36;100.00
13367;BME280;6752;52.612;13.630;2023-06-24T07:19:27;101647.97;;;22.10;100.00
13367;BME280;6752;52.612;13.630;2023-06-24T07:24:29;101639.84;;;23.46;100.00
13367;BME280;6752;52.612;13.630;2023-06-24T07:29:34;101659.97;;;22.61;100.00
13367;BME280;6752;52.612;13.630;2023-06-24T07:34:41;101670.42;;;22.83;100.00
13367;BME280;6752;52.612;13.630;2023-06-24T07:39:43;101667.19;;;23.11;99.26
13367;BME280;6752;52.612;13.630;2023-06-24T07:44:45;101674.88;;;22.81;99.96
13367;BME280;6752;52.612;13.630;2023-06-24T07:49:48;101672.50;;;22.97;91.93
13367;BME280;6752;52.612;13.630;2023-06-24T07:54:50;101673.87;;;23.05;94.63
13367;BME280;6752;52.612;13.630;2023-06-24T07:59:52;101676.84;;;23.46;89.84
13367;BME280;6752;52.612;13.630;2023-06-24T08:04:57;101686.39;;;23.65;92.10
13367;BME280;6752;52.612;13.630;2023-06-24T08:10:00;101680.48;;;24.09;82.72
13367;BME280;6752;52.612;13.630;2023-06-24T08:15:05;101680.00;;;23.02;92.22
13367;BME280;6752;52.612;13.630;2023-06-24T08:20:07;101668.27;;;24.29;85.48
13367;BME280;6752;52.612;13.630;2023-06-24T08:25:09;101676.00;;;23.56;79.90
13367;BME280;6752;52.612;13.630;2023-06-24T08:30:12;101683.77;;;23.54;77.26
13367;BME280;6752;52.612;13.630;2023-06-24T08:35:17;101679.41;;;24.29;77.06
13367;BME280;6752;52.612;13.630;2023-06-24T08:40:19;101684.92;;;25.37;76.82
13367;BME280;6752;52.612;13.630;2023-06-24T08:45:27;101688.02;;;24.72;72.90
13367;BME280;6752;52.612;13.630;2023-06-24T08:50:35;101671.84;;;25.82;73.04
13367;BME280;6752;52.612;13.630;2023-06-24T08:55:32;101684.45;;;25.65;66.50
13367;BME280;6752;52.612;13.630;2023-06-24T09:00:43;101689.65;;;25.12;71.30
13367;BME280;6752;52.612;13.630;2023-06-24T09:05:52;101681.53;;;25.52;69.82
13367;BME280;6752;52.612;13.630;2023-06-24T09:10:54;101681.81;;;25.77;66.85
13367;BME280;6752;52.612;13.630;2023-06-24T09:16:12;101683.15;;;25.34;67.31
13367;BME280;6752;52.612;13.630;2023-06-24T09:21:21;101677.66;;;26.87;68.16
13367;BME280;6752;52.612;13.630;2023-06-24T09:26:18;101676.49;;;27.23;64.73
13367;BME280;6752;52.612;13.630;2023-06-24T09:31:20;101693.30;;;25.61;64.50
13367;BME280;6752;52.612;13.630;2023-06-24T09:36:23;101689.31;;;25.81;67.12
13367;BME280;6752;52.612;13.630;2023-06-24T09:41:27;101675.19;;;27.38;60.74
13367;BME280;6752;52.612;13.630;2023-06-24T09:46:30;101675.20;;;26.31;58.94
13367;BME280;6752;52.612;13.630;2023-06-24T09:51:37;101676.36;;;26.72;61.92
13367;BME280;6752;52.612;13.630;2023-06-24T09:56:39;101665.63;;;27.76;57.08
13367;BME280;6752;52.612;13.630;2023-06-24T10:01:40;101674.64;;;27.53;63.86
13367;BME280;6752;52.612;13.630;2023-06-24T10:06:42;101663.73;;;28.42;56.59
13367;BME280;6752;52.612;13.630;2023-06-24T10:11:45;101666.14;;;27.92;61.25
13367;BME280;6752;52.612;13.630;2023-06-24T10:16:47;101658.23;;;28.59;55.74
13367;BME280;6752;52.612;13.630;2023-06-24T10:21:58;101647.77;;;27.59;56.91
13367;BME280;6752;52.612;13.630;2023-06-24T10:32:17;101646.64;;;28.75;56.37
13367;BME280;6752;52.612;13.630;2023-06-24T10:37:21;101645.88;;;28.72;57.21
13367;BME280;6752;52.612;13.630;2023-06-24T10:47:56;101642.53;;;27.82;55.99
13367;BME280;6752;52.612;13.630;2023-06-24T10:52:59;101636.60;;;29.05;56.40
13367;BME280;6752;52.612;13.630;2023-06-24T10:58:11;101633.08;;;28.91;54.72
13367;BME280;6752;52.612;13.630;2023-06-24T11:03:17;101630.94;;;28.69;55.57
13367;BME280;6752;52.612;13.630;2023-06-24T11:08:15;101614.16;;;30.10;50.97
13367;BME280;6752;52.612;13.630;2023-06-24T11:13:20;101627.91;;;30.00;55.92
13367;BME280;6752;52.612;13.630;2023-06-24T11:18:20;101632.45;;;29.82;54.53
13367;BME280;6752;52.612;13.630;2023-06-24T11:23:22;101623.81;;;29.25;55.19
13367;BME280;6752;52.612;13.630;2023-06-24T11:28:25;101624.52;;;29.51;53.28
13367;BME280;6752;52.612;13.630;2023-06-24T11:33:27;101628.50;;;29.19;53.44
13367;BME280;6752;52.612;13.630;2023-06-24T11:38:29;101617.88;;;29.79;53.00
13367;BME280;6752;52.612;13.630;2023-06-24T11:43:32;101619.36;;;30.10;56.96
13367;BME280;6752;52.612;13.630;2023-06-24T11:48:39;101613.69;;;28.69;51.58
13367;BME280;6752;52.612;13.630;2023-06-24T11:53:42;101611.33;;;30.19;52.58
13367;BME280;6752;52.612;13.630;2023-06-24T11:58:48;101605.02;;;29.50;50.13
13367;BME280;6752;52.612;13.630;2023-06-24T12:03:49;101622.36;;;28.93;54.43
13367;BME280;6752;52.612;13.630;2023-06-24T12:08:51;101603.45;;;30.53;52.66
13367;BME280;6752;52.612;13.630;2023-06-24T12:13:59;101600.55;;;29.95;52.23
13367;BME280;6752;52.612;13.630;2023-06-24T12:19:02;101594.51;;;29.94;50.28
13367;BME280;6752;52.612;13.630;2023-06-24T12:24:04;101610.09;;;29.04;53.99
13367;BME280;6752;52.612;13.630;2023-06-24T12:29:06;101601.11;;;28.78;54.44
13367;BME280;6752;52.612;13.630;2023-06-24T12:34:12;101605.25;;;28.65;54.79
13367;BME280;6752;52.612;13.630;2023-06-24T12:39:10;101586.30;;;29.17;50.37
13367;BME280;6752;52.612;13.630;2023-06-24T12:44:13;101595.05;;;29.40;54.37
13367;BME280;6752;52.612;13.630;2023-06-24T12:49:15;101589.72;;;27.82;50.25
13367;BME280;6752;52.612;13.630;2023-06-24T12:54:20;101591.42;;;28.99;50.13
13367;BME280;6752;52.612;13.630;2023-06-24T12:59:26;101580.52;;;28.98;49.28
13367;BME280;6752;52.612;13.630;2023-06-24T13:04:28;101593.61;;;28.87;55.23
13367;BME280;6752;52.612;13.630;2023-06-24T13:09:30;101585.14;;;29.38;55.36
13367;BME280;6752;52.612;13.630;2023-06-24T13:14:35;101590.52;;;28.59;54.12
13367;BME280;6752;52.612;13.630;2023-06-24T13:19:38;101593.31;;;28.59;53.48
13367;BME280;6752;52.612;13.630;2023-06-24T13:24:40;101586.88;;;28.59;52.79
13367;BME280;6752;52.612;13.630;2023-06-24T13:29:43;101592.83;;;29.43;54.81
13367;BME280;6752;52.612;13.630;2023-06-24T13:35:00;101585.67;;;28.78;53.53
13367;BME280;6752;52.612;13.630;2023-06-24T13:40:04;101591.45;;;27.40;54.99
13367;BME280;6752;52.612;13.630;2023-06-24T13:45:23;101574.25;;;28.97;53.42
13367;BME280;6752;52.612;13.630;2023-06-24T13:50:25;101583.88;;;28.28;54.76
13367;BME280;6752;52.612;13.630;2023-06-24T13:55:27;101575.47;;;28.22;56.73
13367;BME280;6752;52.612;13.630;2023-06-24T14:00:29;101556.32;;;27.97;52.44
13367;BME280;6752;52.612;13.630;2023-06-24T14:05:32;101563.80;;;26.74;55.92
13367;BME280;6752;52.612;13.630;2023-06-24T14:10:34;101561.06;;;28.59;55.25
13367;BME280;6752;52.612;13.630;2023-06-24T14:15:36;101551.27;;;27.92;53.28
13367;BME280;6752;52.612;13.630;2023-06-24T14:20:39;101552.90;;;27.36;54.62
13367;BME280;6752;52.612;13.630;2023-06-24T14:25:41;101559.06;;;27.50;57.37
13367;BME280;6752;52.612;13.630;2023-06-24T14:30:44;101548.05;;;27.92;55.67
13367;BME280;6752;52.612;13.630;2023-06-24T14:35:46;101559.50;;;26.92;54.90
13367;BME280;6752;52.612;13.630;2023-06-24T14:40:48;101539.00;;;27.38;52.31
13367;BME280;6752;52.612;13.630;2023-06-24T14:45:50;101545.00;;;26.77;54.68
13367;BME280;6752;52.612;13.630;2023-06-24T14:50:53;101533.78;;;26.70;54.11
13367;BME280;6752;52.612;13.630;2023-06-24T14:55:55;101532.13;;;27.65;56.36
13367;BME280;6752;52.612;13.630;2023-06-24T15:00:57;101530.85;;;27.21;57.48
13367;BME280;6752;52.612;13.630;2023-06-24T15:06:00;101536.72;;;26.79;57.54
13367;BME280;6752;52.612;13.630;2023-06-24T15:11:02;101527.36;;;26.56;55.88
13367;BME280;6752;52.612;13.630;2023-06-24T15:16:04;101528.46;;;25.71;57.13
13367;BME280;6752;52.612;13.630;2023-06-24T15:21:07;101526.39;;;26.21;57.44
13367;BME280;6752;52.612;13.630;2023-06-24T15:26:09;101520.70;;;26.45;57.74
13367;BME280;6752;52.612;13.630;2023-06-24T15:31:11;101517.84;;;27.07;55.65
13367;BME280;6752;52.612;13.630;2023-06-24T15:36:17;101514.94;;;26.62;55.63
13367;BME280;6752;52.612;13.630;2023-06-24T15:41:19;101515.66;;;27.50;57.70
13367;BME280;6752;52.612;13.630;2023-06-24T15:46:21;101511.59;;;27.56;56.30
13367;BME280;6752;52.612;13.630;2023-06-24T15:51:23;101507.34;;;27.72;56.47
13367;BME280;6752;52.612;13.630;2023-06-24T15:56:25;101500.02;;;27.35;56.83
13367;BME280;6752;52.612;13.630;2023-06-24T16:01:27;101503.58;;;27.77;53.86
13367;BME280;6752;52.612;13.630;2023-06-24T16:06:29;101503.80;;;27.73;53.14
13367;BME280;6752;52.612;13.630;2023-06-24T16:11:32;101507.27;;;28.08;51.50
13367;BME280;6752;52.612;13.630;2023-06-24T16:16:34;101502.91;;;28.09;51.75
13367;BME280;6752;52.612;13.630;2023-06-24T16:21:37;101508.41;;;27.60;54.44
13367;BME280;6752;52.612;13.630;2023-06-24T16:26:39;101500.91;;;27.72;54.55
13367;BME280;6752;52.612;13.630;2023-06-24T16:31:41;101503.94;;;27.16;55.08
13367;BME280;6752;52.612;13.630;2023-06-24T16:36:44;101502.48;;;26.98;54.32
13367;BME280;6752;52.612;13.630;2023-06-24T16:41:46;101502.94;;;26.45;56.07
13367;BME280;6752;52.612;13.630;2023-06-24T16:46:48;101505.78;;;26.10;56.66
13367;BME280;6752;52.612;13.630;2023-06-24T16:51:50;101502.93;;;25.80;55.90
13367;BME280;6752;52.612;13.630;2023-06-24T16:56:53;101502.60;;;25.91;56.31
13367;BME280;6752;52.612;13.630;2023-06-24T17:01:55;101500.03;;;25.66;58.29
13367;BME280;6752;52.612;13.630;2023-06-24T17:06:58;101504.50;;;25.67;58.69
13367;BME280;6752;52.612;13.630;2023-06-24T17:12:00;101502.42;;;25.54;56.97
13367;BME280;6752;52.612;13.630;2023-06-24T17:17:02;101501.70;;;25.86;56.28
13367;BME280;6752;52.612;13.630;2023-06-24T17:22:05;101509.14;;;26.00;57.41
13367;BME280;6752;52.612;13.630;2023-06-24T17:27:07;101504.73;;;25.71;58.05
13367;BME280;6752;52.612;13.630;2023-06-24T17:32:09;101504.16;;;25.71;59.56
13367;BME280;6752;52.612;13.630;2023-06-24T17:37:12;101500.92;;;25.52;59.19
13367;BME280;6752;52.612;13.630;2023-06-24T17:42:14;101499.41;;;25.50;59.77
13367;BME280;6752;52.612;13.630;2023-06-24T17:47:17;101498.15;;;25.31;59.15
13367;BME280;6752;52.612;13.630;2023-06-24T17:52:19;101495.34;;;25.43;61.00
13367;BME280;6752;52.612;13.630;2023-06-24T17:57:21;101497.36;;;25.28;60.83
13367;BME280;6752;52.612;13.630;2023-06-24T18:02:24;101497.55;;;24.77;60.52
13367;BME280;6752;52.612;13.630;2023-06-24T18:07:26;101499.22;;;24.90;61.29
13367;BME280;6752;52.612;13.630;2023-06-24T18:12:29;101506.66;;;24.61;62.26
13367;BME280;6752;52.612;13.630;2023-06-24T18:17:31;101508.20;;;24.72;62.90
13367;BME280;6752;52.612;13.630;2023-06-24T18:22:34;101503.84;;;24.63;65.39
13367;BME280;6752;52.612;13.630;2023-06-24T18:27:36;101501.53;;;24.30;63.71
13367;BME280;6752;52.612;13.630;2023-06-24T18:32:38;101506.66;;;24.46;65.77
13367;BME280;6752;52.612;13.630;2023-06-24T18:37:40;101498.69;;;24.37;66.36
13367;BME280;6752;52.612;13.630;2023-06-24T18:42:43;101498.56;;;24.33;68.07
13367;BME280;6752;52.612;13.630;2023-06-24T18:47:45;101495.95;;;24.30;70.88
13367;BME280;6752;52.612;13.630;2023-06-24T18:52:47;101493.61;;;24.08;71.38
13367;BME280;6752;52.612;13.630;2023-06-24T18:57:49;101500.70;;;23.95;73.20
13367;BME280;6752;52.612;13.630;2023-06-24T19:02:52;101499.08;;;23.42;81.09
13367;BME280;6752;52.612;13.630;2023-06-24T19:07:54;101495.38;;;23.54;79.58
13367;BME280;6752;52.612;13.630;2023-06-24T19:12:57;101496.73;;;23.35;78.62
13367;BME280;6752;52.612;13.630;2023-06-24T19:17:58;101492.27;;;23.12;83.42
13367;BME280;6752;52.612;13.630;2023-06-24T19:23:00;101491.64;;;23.00;83.94
13367;BME280;6752;52.612;13.630;2023-06-24T19:28:03;101493.91;;;22.78;85.11
13367;BME280;6752;52.612;13.630;2023-06-24T19:33:05;101500.38;;;22.38;89.32
13367;BME280;6752;52.612;13.630;2023-06-24T19:38:08;101506.21;;;22.39;87.03
13367;BME280;6752;52.612;13.630;2023-06-24T19:43:10;101500.26;;;22.16;88.36
13367;BME280;6752;52.612;13.630;2023-06-24T19:48:13;101502.30;;;21.99;88.02
13367;BME280;6752;52.612;13.630;2023-06-24T19:53:15;101504.95;;;21.80;88.85
13367;BME280;6752;52.612;13.630;2023-06-24T19:58:17;101502.56;;;21.67;90.44
13367;BME280;6752;52.612;13.630;2023-06-24T20:03:20;101504.31;;;21.42;90.28
13367;BME280;6752;52.612;13.630;2023-06-24T20:08:22;101506.09;;;21.32;89.85
13367;BME280;6752;52.612;13.630;2023-06-24T20:13:24;101505.86;;;21.18;89.78
13367;BME280;6752;52.612;13.630;2023-06-24T20:18:27;101508.70;;;21.04;88.62
13367;BME280;6752;52.612;13.630;2023-06-24T20:23:29;101509.33;;;20.82;89.37
13367;BME280;6752;52.612;13.630;2023-06-24T20:28:32;101499.28;;;20.74;90.18
13367;BME280;6752;52.612;13.630;2023-06-24T20:33:34;101495.16;;;20.58;92.09
13367;BME280;6752;52.612;13.630;2023-06-24T20:38:37;101490.58;;;20.55;89.98
13367;BME280;6752;52.612;13.630;2023-06-24T20:43:39;101488.16;;;20.43;90.46
13367;BME280;6752;52.612;13.630;2023-06-24T20:48:41;101485.81;;;20.29;91.21
13367;BME280;6752;52.612;13.630;2023-06-24T20:53:44;101491.14;;;20.17;93.04
13367;BME280;6752;52.612;13.630;2023-06-24T20:58:46;101485.38;;;19.89;96.97
13367;BME280;6752;52.612;13.630;2023-06-24T21:03:49;101485.56;;;19.64;98.77
13367;BME280;6752;52.612;13.630;2023-06-24T21:08:51;101480.77;;;19.57;98.65
13367;BME280;6752;52.612;13.630;2023-06-24T21:13:57;101475.81;;;19.59;98.20
13367;BME280;6752;52.612;13.630;2023-06-24T21:18:56;101482.17;;;19.22;100.00
13367;BME280;6752;52.612;13.630;2023-06-24T21:23:58;101488.17;;;19.27;100.00
13367;BME280;6752;52.612;13.630;2023-06-24T21:29:03;101478.55;;;19.19;100.00
13367;BME280;6752;52.612;13.630;2023-06-24T21:34:05;101486.21;;;18.92;100.00
13367;BME280;6752;52.612;13.630;2023-06-24T21:39:08;101477.02;;;18.95;100.00
13367;BME280;6752;52.612;13.630;2023-06-24T21:44:10;101475.16;;;18.92;100.00
13367;BME280;6752;52.612;13.630;2023-06-24T21:49:13;101479.83;;;18.78;100.00
13367;BME280;6752;52.612;13.630;2023-06-24T21:54:15;101485.20;;;18.60;100.00
13367;BME280;6752;52.612;13.630;2023-06-24T21:59:17;101483.33;;;18.35;100.00
13367;BME280;6752;52.612;13.630;2023-06-24T22:04:20;101476.36;;;18.30;100.00
13367;BME280;6752;52.612;13.630;2023-06-24T22:09:22;101472.73;;;18.27;100.00
13367;BME280;6752;52.612;13.630;2023-06-24T22:14:24;101472.17;;;18.19;100.00
13367;BME280;6752;52.612;13.630;2023-06-24T22:19:27;101473.00;;;18.20;100.00
13367;BME280;6752;52.612;13.630;2023-06-24T22:24:29;101474.45;;;18.05;100.00
13367;BME280;6752;52.612;13.630;2023-06-24T22:29:32;101480.54;;;17.91;100.00
13367;BME280;6752;52.612;13.630;2023-06-24T22:34:34;101481.08;;;17.90;100.00
13367;BME280;6752;52.612;13.630;2023-06-24T22:39:36;101481.17;;;17.87;100.00
13367;BME280;6752;52.612;13.630;2023-06-24T22:44:39;101482.93;;;17.76;100.00
13367;BME280;6752;52.612;13.630;2023-06-24T22:49:41;101484.57;;;17.69;100.00
13367;BME280;6752;52.612;13.630;2023-06-24T22:54:43;101486.75;;;17.47;100.00
13367;BME280;6752;52.612;13.630;2023-06-24T22:59:46;101490.36;;;17.33;100.00
13367;BME280;6752;52.612;13.630;2023-06-24T23:04:48;101485.39;;;17.32;100.00
13367;BME280;6752;52.612;13.630;2023-06-24T23:09:53;101487.88;;;17.20;100.00
13367;BME280;6752;52.612;13.630;2023-06-24T23:14:56;101486.26;;;17.21;100.00
13367;BME280;6752;52.612;13.630;2023-06-24T23:19:58;101476.89;;;17.14;100.00
13367;BME280;6752;52.612;13.630;2023-06-24T23:25:00;101480.30;;;17.04;100.00
13367;BME280;6752;52.612;13.630;2023-06-24T23:30:06;101485.63;;;16.97;100.00
13367;BME280;6752;52.612;13.630;2023-06-24T23:35:11;101476.50;;;16.88;100.00
13367;BME280;6752;52.612;13.630;2023-06-24T23:40:13;101471.95;;;16.87;100.00
13367;BME280;6752;52.612;13.630;2023-06-24T23:45:16;101474.73;;;16.82;100.00
13367;BME280;6752;52.612;13.630;2023-06-24T23:50:18;101472.30;;;16.79;100.00
13367;BME280;6752;52.612;13.630;2023-06-24T23:55:21;101465.47;;;16.68;100.00
